sensor_id;sensor_type;location;lat;lon;timestamp;P1;durP1;ratioP1;P2;durP2;ratioP2
48733;SDS011;34530;52.084;5.146;2022-11-20T00:00:48;6.18;;;3.80;;
48733;SDS011;34530;52.084;5.146;2022-11-20T00:03:13;5.07;;;4.10;;
48733;SDS011;34530;52.084;5.146;2022-11-20T00:05:39;3.88;;;3.25;;
48733;SDS011;34530;52.084;5.146;2022-11-20T00:08:05;4.00;;;3.58;;
48733;SDS011;34530;52.084;5.146;2022-11-20T00:10:30;4.50;;;3.67;;
48733;SDS011;34530;52.084;5.146;2022-11-20T00:12:59;5.20;;;4.10;;
48733;SDS011;34530;52.084;5.146;2022-11-20T00:15:25;4.63;;;3.63;;
48733;SDS011;34530;52.084;5.146;2022-11-20T00:17:50;5.03;;;3.80;;
48733;SDS011;34530;52.084;5.146;2022-11-20T00:20:16;5.13;;;3.80;;
48733;SDS011;34530;52.084;5.146;2022-11-20T00:22:42;4.07;;;3.65;;
48733;SDS011;34530;52.084;5.146;2022-11-20T00:25:07;6.32;;;4.28;;
48733;SDS011;34530;52.084;5.146;2022-11-20T00:27:33;4.95;;;3.92;;
48733;SDS011;34530;52.084;5.146;2022-11-20T00:29:59;4.88;;;3.75;;
48733;SDS011;34530;52.084;5.146;2022-11-20T00:32:24;5.32;;;4.13;;
48733;SDS011;34530;52.084;5.146;2022-11-20T00:34:50;5.10;;;4.07;;
48733;SDS011;34530;52.084;5.146;2022-11-20T00:37:15;5.72;;;3.97;;
48733;SDS011;34530;52.084;5.146;2022-11-20T00:39:41;5.90;;;4.22;;
48733;SDS011;34530;52.084;5.146;2022-11-20T00:42:06;5.15;;;3.80;;
48733;SDS011;34530;52.084;5.146;2022-11-20T00:44:32;4.68;;;4.00;;
48733;SDS011;34530;52.084;5.146;2022-11-20T00:46:57;5.25;;;3.90;;
48733;SDS011;34530;52.084;5.146;2022-11-20T00:49:23;5.65;;;4.18;;
48733;SDS011;34530;52.084;5.146;2022-11-20T00:51:48;6.13;;;4.38;;
48733;SDS011;34530;52.084;5.146;2022-11-20T00:54:14;6.88;;;4.28;;
48733;SDS011;34530;52.084;5.146;2022-11-20T00:56:40;7.60;;;4.35;;
48733;SDS011;34530;52.084;5.146;2022-11-20T00:59:05;7.10;;;4.80;;
48733;SDS011;34530;52.084;5.146;2022-11-20T01:01:31;5.57;;;3.78;;
48733;SDS011;34530;52.084;5.146;2022-11-20T01:03:57;11.38;;;4.10;;
48733;SDS011;34530;52.084;5.146;2022-11-20T01:06:26;5.22;;;4.22;;
48733;SDS011;34530;52.084;5.146;2022-11-20T01:08:57;5.95;;;4.63;;
48733;SDS011;34530;52.084;5.146;2022-11-20T01:11:25;5.07;;;4.05;;
48733;SDS011;34530;52.084;5.146;2022-11-20T01:13:52;5.90;;;4.40;;
48733;SDS011;34530;52.084;5.146;2022-11-20T01:16:23;6.80;;;4.15;;
48733;SDS011;34530;52.084;5.146;2022-11-20T01:18:54;5.32;;;4.13;;
48733;SDS011;34530;52.084;5.146;2022-11-20T01:21:23;5.60;;;3.95;;
48733;SDS011;34530;52.084;5.146;2022-11-20T01:23:50;5.13;;;4.03;;
48733;SDS011;34530;52.084;5.146;2022-11-20T01:26:21;5.95;;;4.30;;
48733;SDS011;34530;52.084;5.146;2022-11-20T01:28:49;16.58;;;6.07;;
48733;SDS011;34530;52.084;5.146;2022-11-20T01:31:20;19.40;;;6.10;;
48733;SDS011;34530;52.084;5.146;2022-11-20T01:33:52;16.42;;;6.90;;
48733;SDS011;34530;52.084;5.146;2022-11-20T01:36:20;11.43;;;5.47;;
48733;SDS011;34530;52.084;5.146;2022-11-20T01:38:47;14.98;;;6.30;;
48733;SDS011;34530;52.084;5.146;2022-11-20T01:41:16;11.32;;;5.90;;
48733;SDS011;34530;52.084;5.146;2022-11-20T01:44:00;11.60;;;5.30;;
48733;SDS011;34530;52.084;5.146;2022-11-20T01:46:27;13.82;;;5.40;;
48733;SDS011;34530;52.084;5.146;2022-11-20T01:51:21;10.70;;;5.50;;
48733;SDS011;34530;52.084;5.146;2022-11-20T01:53:53;13.95;;;6.07;;
48733;SDS011;34530;52.084;5.146;2022-11-20T01:56:21;9.95;;;4.97;;
48733;SDS011;34530;52.084;5.146;2022-11-20T01:58:48;9.73;;;5.22;;
48733;SDS011;34530;52.084;5.146;2022-11-20T02:01:17;9.85;;;5.60;;
48733;SDS011;34530;52.084;5.146;2022-11-20T02:03:43;10.63;;;5.40;;
48733;SDS011;34530;52.084;5.146;2022-11-20T02:06:11;13.70;;;5.47;;
48733;SDS011;34530;52.084;5.146;2022-11-20T02:08:38;10.27;;;5.53;;
48733;SDS011;34530;52.084;5.146;2022-11-20T02:11:04;8.50;;;5.32;;
48733;SDS011;34530;52.084;5.146;2022-11-20T02:13:30;13.15;;;5.00;;
48733;SDS011;34530;52.084;5.146;2022-11-20T02:16:11;9.65;;;5.80;;
48733;SDS011;34530;52.084;5.146;2022-11-20T02:18:38;8.75;;;5.18;;
48733;SDS011;34530;52.084;5.146;2022-11-20T02:26:22;9.05;;;4.72;;
48733;SDS011;34530;52.084;5.146;2022-11-20T02:28:50;9.80;;;5.68;;
48733;SDS011;34530;52.084;5.146;2022-11-20T02:31:16;8.80;;;5.10;;
48733;SDS011;34530;52.084;5.146;2022-11-20T02:33:41;10.18;;;5.20;;
48733;SDS011;34530;52.084;5.146;2022-11-20T02:36:08;9.30;;;5.20;;
48733;SDS011;34530;52.084;5.146;2022-11-20T02:38:39;8.68;;;5.25;;
48733;SDS011;34530;52.084;5.146;2022-11-20T02:41:05;10.48;;;5.13;;
48733;SDS011;34530;52.084;5.146;2022-11-20T02:43:30;7.18;;;4.90;;
48733;SDS011;34530;52.084;5.146;2022-11-20T02:45:56;7.97;;;4.57;;
48733;SDS011;34530;52.084;5.146;2022-11-20T02:48:21;6.72;;;5.47;;
48733;SDS011;34530;52.084;5.146;2022-11-20T02:50:47;6.60;;;4.53;;
48733;SDS011;34530;52.084;5.146;2022-11-20T02:53:12;8.50;;;4.88;;
48733;SDS011;34530;52.084;5.146;2022-11-20T02:55:38;6.63;;;4.65;;
48733;SDS011;34530;52.084;5.146;2022-11-20T02:58:03;6.50;;;4.75;;
48733;SDS011;34530;52.084;5.146;2022-11-20T03:00:29;7.53;;;4.50;;
48733;SDS011;34530;52.084;5.146;2022-11-20T03:02:55;8.20;;;5.15;;
48733;SDS011;34530;52.084;5.146;2022-11-20T03:05:21;6.78;;;4.55;;
48733;SDS011;34530;52.084;5.146;2022-11-20T03:07:46;5.45;;;4.43;;
48733;SDS011;34530;52.084;5.146;2022-11-20T03:10:12;7.85;;;5.30;;
48733;SDS011;34530;52.084;5.146;2022-11-20T03:12:37;6.20;;;4.18;;
48733;SDS011;34530;52.084;5.146;2022-11-20T03:15:03;6.38;;;4.82;;
48733;SDS011;34530;52.084;5.146;2022-11-20T03:17:29;5.35;;;4.20;;
48733;SDS011;34530;52.084;5.146;2022-11-20T03:19:55;5.97;;;4.38;;
48733;SDS011;34530;52.084;5.146;2022-11-20T03:22:21;8.27;;;5.07;;
48733;SDS011;34530;52.084;5.146;2022-11-20T03:24:47;6.45;;;4.50;;
48733;SDS011;34530;52.084;5.146;2022-11-20T03:27:12;5.53;;;4.47;;
48733;SDS011;34530;52.084;5.146;2022-11-20T03:29:38;6.25;;;4.53;;
48733;SDS011;34530;52.084;5.146;2022-11-20T03:32:03;7.90;;;4.25;;
48733;SDS011;34530;52.084;5.146;2022-11-20T03:34:29;5.70;;;4.32;;
48733;SDS011;34530;52.084;5.146;2022-11-20T03:36:55;4.95;;;4.32;;
48733;SDS011;34530;52.084;5.146;2022-11-20T03:39:20;5.05;;;4.22;;
48733;SDS011;34530;52.084;5.146;2022-11-20T03:41:46;5.43;;;4.20;;
48733;SDS011;34530;52.084;5.146;2022-11-20T03:44:12;6.20;;;4.35;;
48733;SDS011;34530;52.084;5.146;2022-11-20T03:46:37;5.32;;;4.28;;
48733;SDS011;34530;52.084;5.146;2022-11-20T03:49:04;7.78;;;4.43;;
48733;SDS011;34530;52.084;5.146;2022-11-20T03:51:33;7.15;;;4.63;;
48733;SDS011;34530;52.084;5.146;2022-11-20T03:54:01;5.68;;;4.35;;
48733;SDS011;34530;52.084;5.146;2022-11-20T03:56:29;4.75;;;4.13;;
48733;SDS011;34530;52.084;5.146;2022-11-20T03:58:56;5.15;;;4.55;;
48733;SDS011;34530;52.084;5.146;2022-11-20T04:01:26;6.07;;;4.53;;
48733;SDS011;34530;52.084;5.146;2022-11-20T04:03:54;4.90;;;3.88;;
48733;SDS011;34530;52.084;5.146;2022-11-20T04:06:25;6.38;;;4.35;;
48733;SDS011;34530;52.084;5.146;2022-11-20T04:08:58;4.78;;;4.05;;
48733;SDS011;34530;52.084;5.146;2022-11-20T04:11:25;5.45;;;4.38;;
48733;SDS011;34530;52.084;5.146;2022-11-20T04:13:54;4.85;;;4.13;;
48733;SDS011;34530;52.084;5.146;2022-11-20T04:16:21;5.88;;;4.22;;
48733;SDS011;34530;52.084;5.146;2022-11-20T04:18:51;4.90;;;4.18;;
48733;SDS011;34530;52.084;5.146;2022-11-20T04:21:17;6.38;;;4.28;;
48733;SDS011;34530;52.084;5.146;2022-11-20T04:23:43;4.72;;;4.15;;
48733;SDS011;34530;52.084;5.146;2022-11-20T04:26:10;4.65;;;3.95;;
48733;SDS011;34530;52.084;5.146;2022-11-20T04:28:37;4.93;;;3.83;;
48733;SDS011;34530;52.084;5.146;2022-11-20T04:31:07;6.82;;;4.43;;
48733;SDS011;34530;52.084;5.146;2022-11-20T04:33:35;4.75;;;3.88;;
48733;SDS011;34530;52.084;5.146;2022-11-20T04:36:10;5.10;;;4.00;;
48733;SDS011;34530;52.084;5.146;2022-11-20T04:38:38;5.32;;;4.28;;
48733;SDS011;34530;52.084;5.146;2022-11-20T04:41:05;5.80;;;4.22;;
48733;SDS011;34530;52.084;5.146;2022-11-20T04:43:40;4.85;;;4.13;;
48733;SDS011;34530;52.084;5.146;2022-11-20T04:46:06;4.40;;;3.80;;
48733;SDS011;34530;52.084;5.146;2022-11-20T04:48:32;5.25;;;4.10;;
48733;SDS011;34530;52.084;5.146;2022-11-20T04:50:57;4.57;;;3.75;;
48733;SDS011;34530;52.084;5.146;2022-11-20T04:53:27;5.00;;;3.88;;
48733;SDS011;34530;52.084;5.146;2022-11-20T04:55:58;5.80;;;4.38;;
48733;SDS011;34530;52.084;5.146;2022-11-20T04:58:25;4.03;;;3.63;;
48733;SDS011;34530;52.084;5.146;2022-11-20T05:00:50;5.75;;;3.85;;
48733;SDS011;34530;52.084;5.146;2022-11-20T05:03:16;6.55;;;4.43;;
48733;SDS011;34530;52.084;5.146;2022-11-20T05:05:42;5.10;;;3.97;;
48733;SDS011;34530;52.084;5.146;2022-11-20T05:08:07;5.32;;;3.80;;
48733;SDS011;34530;52.084;5.146;2022-11-20T05:10:33;4.70;;;3.85;;
48733;SDS011;34530;52.084;5.146;2022-11-20T05:12:58;6.32;;;3.83;;
48733;SDS011;34530;52.084;5.146;2022-11-20T05:15:24;4.32;;;3.90;;
48733;SDS011;34530;52.084;5.146;2022-11-20T05:17:50;4.63;;;3.80;;
48733;SDS011;34530;52.084;5.146;2022-11-20T05:20:17;4.45;;;3.88;;
48733;SDS011;34530;52.084;5.146;2022-11-20T05:22:44;5.43;;;4.07;;
48733;SDS011;34530;52.084;5.146;2022-11-20T05:25:10;4.63;;;3.70;;
48733;SDS011;34530;52.084;5.146;2022-11-20T05:27:36;4.50;;;3.47;;
48733;SDS011;34530;52.084;5.146;2022-11-20T05:30:03;6.32;;;3.88;;
48733;SDS011;34530;52.084;5.146;2022-11-20T05:32:30;4.13;;;3.72;;
48733;SDS011;34530;52.084;5.146;2022-11-20T05:34:55;5.22;;;4.13;;
48733;SDS011;34530;52.084;5.146;2022-11-20T05:37:21;4.95;;;4.05;;
48733;SDS011;34530;52.084;5.146;2022-11-20T05:39:46;5.57;;;4.30;;
48733;SDS011;34530;52.084;5.146;2022-11-20T05:42:12;4.22;;;3.78;;
48733;SDS011;34530;52.084;5.146;2022-11-20T05:44:59;4.82;;;4.05;;
48733;SDS011;34530;52.084;5.146;2022-11-20T05:47:26;4.43;;;3.53;;
48733;SDS011;34530;52.084;5.146;2022-11-20T05:49:53;5.28;;;3.80;;
48733;SDS011;34530;52.084;5.146;2022-11-20T05:52:18;6.03;;;3.70;;
48733;SDS011;34530;52.084;5.146;2022-11-20T05:54:44;4.35;;;3.45;;
48733;SDS011;34530;52.084;5.146;2022-11-20T05:57:10;4.40;;;3.90;;
48733;SDS011;34530;52.084;5.146;2022-11-20T05:59:35;6.22;;;4.07;;
48733;SDS011;34530;52.084;5.146;2022-11-20T06:02:01;4.13;;;3.65;;
48733;SDS011;34530;52.084;5.146;2022-11-20T06:04:26;3.90;;;3.60;;
48733;SDS011;34530;52.084;5.146;2022-11-20T06:06:52;5.13;;;4.10;;
48733;SDS011;34530;52.084;5.146;2022-11-20T06:09:18;4.70;;;3.70;;
48733;SDS011;34530;52.084;5.146;2022-11-20T06:11:43;3.95;;;3.55;;
48733;SDS011;34530;52.084;5.146;2022-11-20T06:14:09;4.15;;;3.78;;
48733;SDS011;34530;52.084;5.146;2022-11-20T06:16:34;4.45;;;3.92;;
48733;SDS011;34530;52.084;5.146;2022-11-20T06:19:00;3.90;;;3.50;;
48733;SDS011;34530;52.084;5.146;2022-11-20T06:21:25;6.57;;;3.97;;
48733;SDS011;34530;52.084;5.146;2022-11-20T06:23:52;4.40;;;3.50;;
48733;SDS011;34530;52.084;5.146;2022-11-20T06:26:22;5.05;;;3.95;;
48733;SDS011;34530;52.084;5.146;2022-11-20T06:28:49;5.88;;;4.13;;
48733;SDS011;34530;52.084;5.146;2022-11-20T06:31:16;5.07;;;3.95;;
48733;SDS011;34530;52.084;5.146;2022-11-20T06:33:43;4.18;;;3.80;;
48733;SDS011;34530;52.084;5.146;2022-11-20T06:36:10;3.97;;;3.50;;
48733;SDS011;34530;52.084;5.146;2022-11-20T06:38:37;4.70;;;3.60;;
48733;SDS011;34530;52.084;5.146;2022-11-20T06:41:04;5.22;;;4.18;;
48733;SDS011;34530;52.084;5.146;2022-11-20T06:43:30;4.05;;;3.60;;
48733;SDS011;34530;52.084;5.146;2022-11-20T06:45:56;4.28;;;3.80;;
48733;SDS011;34530;52.084;5.146;2022-11-20T06:48:23;4.07;;;3.50;;
48733;SDS011;34530;52.084;5.146;2022-11-20T06:50:50;4.05;;;3.65;;
48733;SDS011;34530;52.084;5.146;2022-11-20T06:53:16;4.57;;;4.03;;
48733;SDS011;34530;52.084;5.146;2022-11-20T06:55:42;4.32;;;3.58;;
48733;SDS011;34530;52.084;5.146;2022-11-20T06:58:08;5.50;;;4.25;;
48733;SDS011;34530;52.084;5.146;2022-11-20T07:00:34;4.28;;;3.88;;
48733;SDS011;34530;52.084;5.146;2022-11-20T07:03:06;4.70;;;3.88;;
48733;SDS011;34530;52.084;5.146;2022-11-20T07:05:34;5.38;;;4.05;;
48733;SDS011;34530;52.084;5.146;2022-11-20T07:08:00;4.40;;;3.42;;
48733;SDS011;34530;52.084;5.146;2022-11-20T07:10:26;4.88;;;3.92;;
48733;SDS011;34530;52.084;5.146;2022-11-20T07:12:52;4.93;;;3.95;;
48733;SDS011;34530;52.084;5.146;2022-11-20T07:15:19;4.28;;;3.40;;
48733;SDS011;34530;52.084;5.146;2022-11-20T07:17:46;4.20;;;3.70;;
48733;SDS011;34530;52.084;5.146;2022-11-20T07:20:12;4.63;;;3.78;;
48733;SDS011;34530;52.084;5.146;2022-11-20T07:22:38;4.93;;;3.80;;
48733;SDS011;34530;52.084;5.146;2022-11-20T07:25:04;3.95;;;3.13;;
48733;SDS011;34530;52.084;5.146;2022-11-20T07:27:30;3.97;;;3.58;;
48733;SDS011;34530;52.084;5.146;2022-11-20T07:29:55;4.35;;;3.90;;
48733;SDS011;34530;52.084;5.146;2022-11-20T07:32:21;4.85;;;3.95;;
48733;SDS011;34530;52.084;5.146;2022-11-20T07:34:47;4.72;;;3.70;;
48733;SDS011;34530;52.084;5.146;2022-11-20T07:37:13;3.88;;;3.42;;
48733;SDS011;34530;52.084;5.146;2022-11-20T07:39:39;4.32;;;3.92;;
48733;SDS011;34530;52.084;5.146;2022-11-20T07:42:08;4.68;;;3.67;;
48733;SDS011;34530;52.084;5.146;2022-11-20T07:44:34;4.05;;;3.58;;
48733;SDS011;34530;52.084;5.146;2022-11-20T07:47:00;5.03;;;3.88;;
48733;SDS011;34530;52.084;5.146;2022-11-20T07:49:26;4.75;;;3.90;;
48733;SDS011;34530;52.084;5.146;2022-11-20T07:51:52;4.00;;;3.60;;
48733;SDS011;34530;52.084;5.146;2022-11-20T07:54:19;4.05;;;3.50;;
48733;SDS011;34530;52.084;5.146;2022-11-20T07:56:48;4.35;;;3.42;;
48733;SDS011;34530;52.084;5.146;2022-11-20T07:59:14;5.30;;;4.18;;
48733;SDS011;34530;52.084;5.146;2022-11-20T08:01:40;4.00;;;3.50;;
48733;SDS011;34530;52.084;5.146;2022-11-20T08:04:06;4.30;;;3.90;;
48733;SDS011;34530;52.084;5.146;2022-11-20T08:06:32;4.53;;;3.42;;
48733;SDS011;34530;52.084;5.146;2022-11-20T08:08:57;4.25;;;3.65;;
48733;SDS011;34530;52.084;5.146;2022-11-20T08:11:23;4.57;;;3.88;;
48733;SDS011;34530;52.084;5.146;2022-11-20T08:14:07;4.22;;;3.58;;
48733;SDS011;34530;52.084;5.146;2022-11-20T08:16:39;4.10;;;3.63;;
48733;SDS011;34530;52.084;5.146;2022-11-20T08:19:05;4.53;;;3.83;;
48733;SDS011;34530;52.084;5.146;2022-11-20T08:21:31;4.47;;;3.88;;
48733;SDS011;34530;52.084;5.146;2022-11-20T08:23:58;5.05;;;3.53;;
48733;SDS011;34530;52.084;5.146;2022-11-20T08:26:24;7.65;;;3.95;;
48733;SDS011;34530;52.084;5.146;2022-11-20T08:28:54;4.32;;;3.55;;
48733;SDS011;34530;52.084;5.146;2022-11-20T08:31:20;4.32;;;3.42;;
48733;SDS011;34530;52.084;5.146;2022-11-20T08:33:46;5.47;;;4.03;;
48733;SDS011;34530;52.084;5.146;2022-11-20T08:36:12;4.35;;;3.67;;
48733;SDS011;34530;52.084;5.146;2022-11-20T08:38:38;5.30;;;4.07;;
48733;SDS011;34530;52.084;5.146;2022-11-20T08:41:04;4.57;;;3.72;;
48733;SDS011;34530;52.084;5.146;2022-11-20T08:43:49;4.32;;;3.70;;
48733;SDS011;34530;52.084;5.146;2022-11-20T08:46:16;3.67;;;3.30;;
48733;SDS011;34530;52.084;5.146;2022-11-20T08:48:42;4.50;;;3.42;;
48733;SDS011;34530;52.084;5.146;2022-11-20T08:51:08;4.28;;;3.55;;
48733;SDS011;34530;52.084;5.146;2022-11-20T08:53:34;4.50;;;4.03;;
48733;SDS011;34530;52.084;5.146;2022-11-20T08:56:00;5.25;;;3.85;;
48733;SDS011;34530;52.084;5.146;2022-11-20T08:58:26;4.60;;;3.38;;
48733;SDS011;34530;52.084;5.146;2022-11-20T09:00:51;4.35;;;3.72;;
48733;SDS011;34530;52.084;5.146;2022-11-20T09:03:17;4.80;;;4.30;;
48733;SDS011;34530;52.084;5.146;2022-11-20T09:05:43;5.78;;;4.47;;
48733;SDS011;34530;52.084;5.146;2022-11-20T09:08:09;4.72;;;3.53;;
48733;SDS011;34530;52.084;5.146;2022-11-20T09:10:34;4.38;;;3.70;;
48733;SDS011;34530;52.084;5.146;2022-11-20T09:13:01;4.93;;;4.07;;
48733;SDS011;34530;52.084;5.146;2022-11-20T09:15:27;5.07;;;4.05;;
48733;SDS011;34530;52.084;5.146;2022-11-20T09:18:00;4.25;;;3.85;;
48733;SDS011;34530;52.084;5.146;2022-11-20T09:20:27;8.93;;;4.03;;
48733;SDS011;34530;52.084;5.146;2022-11-20T09:22:54;5.15;;;4.15;;
48733;SDS011;34530;52.084;5.146;2022-11-20T09:25:20;6.32;;;3.88;;
48733;SDS011;34530;52.084;5.146;2022-11-20T09:27:56;4.50;;;3.65;;
48733;SDS011;34530;52.084;5.146;2022-11-20T09:30:22;5.70;;;3.60;;
48733;SDS011;34530;52.084;5.146;2022-11-20T09:32:48;6.30;;;4.05;;
48733;SDS011;34530;52.084;5.146;2022-11-20T09:35:14;5.70;;;3.85;;
48733;SDS011;34530;52.084;5.146;2022-11-20T09:37:39;7.55;;;3.80;;
48733;SDS011;34530;52.084;5.146;2022-11-20T09:40:05;6.95;;;3.80;;
48733;SDS011;34530;52.084;5.146;2022-11-20T09:43:03;6.20;;;3.85;;
48733;SDS011;34530;52.084;5.146;2022-11-20T09:51:08;8.68;;;4.30;;
48733;SDS011;34530;52.084;5.146;2022-11-20T09:56:16;6.03;;;4.82;;
48733;SDS011;34530;52.084;5.146;2022-11-20T09:58:54;4.97;;;3.92;;
48733;SDS011;34530;52.084;5.146;2022-11-20T10:01:26;5.72;;;4.35;;
48733;SDS011;34530;52.084;5.146;2022-11-20T10:03:59;5.05;;;4.55;;
48733;SDS011;34530;52.084;5.146;2022-11-20T10:06:33;5.95;;;4.10;;
48733;SDS011;34530;52.084;5.146;2022-11-20T10:09:16;4.85;;;3.92;;
48733;SDS011;34530;52.084;5.146;2022-11-20T10:11:55;6.00;;;4.20;;
48733;SDS011;34530;52.084;5.146;2022-11-20T10:14:47;5.28;;;3.83;;
48733;SDS011;34530;52.084;5.146;2022-11-20T10:20:13;5.35;;;4.13;;
48733;SDS011;34530;52.084;5.146;2022-11-20T10:22:53;4.18;;;3.47;;
48733;SDS011;34530;52.084;5.146;2022-11-20T10:25:44;4.80;;;3.88;;
48733;SDS011;34530;52.084;5.146;2022-11-20T10:28:34;6.35;;;3.75;;
48733;SDS011;34530;52.084;5.146;2022-11-20T10:31:14;5.88;;;3.90;;
48733;SDS011;34530;52.084;5.146;2022-11-20T10:33:52;5.72;;;3.92;;
48733;SDS011;34530;52.084;5.146;2022-11-20T10:36:30;5.88;;;4.38;;
48733;SDS011;34530;52.084;5.146;2022-11-20T10:39:14;5.50;;;3.95;;
48733;SDS011;34530;52.084;5.146;2022-11-20T10:41:47;5.25;;;3.70;;
48733;SDS011;34530;52.084;5.146;2022-11-20T10:44:17;5.60;;;4.05;;
48733;SDS011;34530;52.084;5.146;2022-11-20T10:47:04;5.22;;;3.90;;
48733;SDS011;34530;52.084;5.146;2022-11-20T10:49:36;5.20;;;4.35;;
48733;SDS011;34530;52.084;5.146;2022-11-20T10:55:25;6.15;;;4.30;;
48733;SDS011;34530;52.084;5.146;2022-11-20T10:58:12;4.05;;;3.53;;
48733;SDS011;34530;52.084;5.146;2022-11-20T11:00:41;4.97;;;3.85;;
48733;SDS011;34530;52.084;5.146;2022-11-20T11:03:26;5.05;;;4.10;;
48733;SDS011;34530;52.084;5.146;2022-11-20T11:05:54;8.45;;;4.45;;
48733;SDS011;34530;52.084;5.146;2022-11-20T11:08:28;5.38;;;4.45;;
48733;SDS011;34530;52.084;5.146;2022-11-20T11:11:02;5.55;;;4.10;;
48733;SDS011;34530;52.084;5.146;2022-11-20T11:13:42;4.20;;;3.75;;
48733;SDS011;34530;52.084;5.146;2022-11-20T11:16:16;5.03;;;4.18;;
48733;SDS011;34530;52.084;5.146;2022-11-20T11:18:50;4.20;;;3.72;;
48733;SDS011;34530;52.084;5.146;2022-11-20T11:21:25;4.93;;;4.22;;
48733;SDS011;34530;52.084;5.146;2022-11-20T11:24:02;4.70;;;4.22;;
48733;SDS011;34530;52.084;5.146;2022-11-20T11:26:28;6.80;;;4.40;;
48733;SDS011;34530;52.084;5.146;2022-11-20T11:28:55;4.28;;;3.88;;
48733;SDS011;34530;52.084;5.146;2022-11-20T11:31:32;5.18;;;3.95;;
48733;SDS011;34530;52.084;5.146;2022-11-20T11:34:05;5.68;;;4.30;;
48733;SDS011;34530;52.084;5.146;2022-11-20T11:36:32;5.38;;;4.60;;
48733;SDS011;34530;52.084;5.146;2022-11-20T11:38:59;5.70;;;4.03;;
48733;SDS011;34530;52.084;5.146;2022-11-20T11:41:28;5.57;;;4.25;;
48733;SDS011;34530;52.084;5.146;2022-11-20T11:44:18;5.43;;;4.78;;
48733;SDS011;34530;52.084;5.146;2022-11-20T11:47:00;4.15;;;3.75;;
48733;SDS011;34530;52.084;5.146;2022-11-20T11:49:29;4.57;;;4.15;;
48733;SDS011;34530;52.084;5.146;2022-11-20T11:54:49;4.60;;;4.15;;
48733;SDS011;34530;52.084;5.146;2022-11-20T12:04:54;5.57;;;5.07;;
48733;SDS011;34530;52.084;5.146;2022-11-20T12:09:57;8.85;;;4.43;;
48733;SDS011;34530;52.084;5.146;2022-11-20T12:12:32;9.85;;;4.70;;
48733;SDS011;34530;52.084;5.146;2022-11-20T12:15:09;6.65;;;4.68;;
48733;SDS011;34530;52.084;5.146;2022-11-20T12:17:37;5.65;;;4.53;;
48733;SDS011;34530;52.084;5.146;2022-11-20T12:20:05;8.73;;;4.85;;
48733;SDS011;34530;52.084;5.146;2022-11-20T12:25:33;6.20;;;5.22;;
48733;SDS011;34530;52.084;5.146;2022-11-20T12:30:41;6.75;;;5.68;;
48733;SDS011;34530;52.084;5.146;2022-11-20T12:33:44;7.13;;;5.47;;
48733;SDS011;34530;52.084;5.146;2022-11-20T12:36:32;6.55;;;5.80;;
48733;SDS011;34530;52.084;5.146;2022-11-20T12:39:24;8.70;;;6.25;;
48733;SDS011;34530;52.084;5.146;2022-11-20T12:45:07;7.45;;;5.68;;
48733;SDS011;34530;52.084;5.146;2022-11-20T12:48:17;8.30;;;6.20;;
48733;SDS011;34530;52.084;5.146;2022-11-20T12:53:56;7.85;;;6.32;;
48733;SDS011;34530;52.084;5.146;2022-11-20T13:02:09;9.52;;;7.15;;
48733;SDS011;34530;52.084;5.146;2022-11-20T13:07:10;11.60;;;7.25;;
48733;SDS011;34530;52.084;5.146;2022-11-20T13:09:42;12.75;;;8.00;;
48733;SDS011;34530;52.084;5.146;2022-11-20T13:12:13;16.25;;;10.50;;
48733;SDS011;34530;52.084;5.146;2022-11-20T13:17:38;14.85;;;10.98;;
48733;SDS011;34530;52.084;5.146;2022-11-20T13:20:14;14.60;;;9.98;;
48733;SDS011;34530;52.084;5.146;2022-11-20T13:22:49;20.25;;;10.13;;
48733;SDS011;34530;52.084;5.146;2022-11-20T13:27:55;14.48;;;9.27;;
48733;SDS011;34530;52.084;5.146;2022-11-20T13:30:23;15.85;;;9.55;;
48733;SDS011;34530;52.084;5.146;2022-11-20T13:38:04;16.90;;;9.10;;
48733;SDS011;34530;52.084;5.146;2022-11-20T13:40:59;14.77;;;9.07;;
48733;SDS011;34530;52.084;5.146;2022-11-20T13:43:44;13.20;;;9.00;;
48733;SDS011;34530;52.084;5.146;2022-11-20T13:46:12;13.50;;;9.10;;
48733;SDS011;34530;52.084;5.146;2022-11-20T13:48:39;15.68;;;9.13;;
48733;SDS011;34530;52.084;5.146;2022-11-20T13:51:12;12.52;;;8.52;;
48733;SDS011;34530;52.084;5.146;2022-11-20T14:02:01;12.90;;;7.05;;
48733;SDS011;34530;52.084;5.146;2022-11-20T14:04:31;15.82;;;8.48;;
48733;SDS011;34530;52.084;5.146;2022-11-20T14:07:00;10.65;;;7.63;;
48733;SDS011;34530;52.084;5.146;2022-11-20T14:11:51;11.63;;;7.10;;
48733;SDS011;34530;52.084;5.146;2022-11-20T14:14:17;10.60;;;7.53;;
48733;SDS011;34530;52.084;5.146;2022-11-20T14:16:46;12.00;;;7.40;;
48733;SDS011;34530;52.084;5.146;2022-11-20T14:21:53;10.98;;;7.05;;
48733;SDS011;34530;52.084;5.146;2022-11-20T14:24:31;9.05;;;7.05;;
48733;SDS011;34530;52.084;5.146;2022-11-20T14:26:57;16.17;;;7.25;;
48733;SDS011;34530;52.084;5.146;2022-11-20T14:29:26;16.58;;;8.43;;
48733;SDS011;34530;52.084;5.146;2022-11-20T14:32:00;15.32;;;8.00;;
48733;SDS011;34530;52.084;5.146;2022-11-20T14:34:30;15.63;;;8.65;;
48733;SDS011;34530;52.084;5.146;2022-11-20T14:36:59;21.17;;;8.75;;
48733;SDS011;34530;52.084;5.146;2022-11-20T14:39:34;22.42;;;9.05;;
48733;SDS011;34530;52.084;5.146;2022-11-20T14:42:01;18.88;;;9.57;;
48733;SDS011;34530;52.084;5.146;2022-11-20T14:44:31;18.95;;;8.90;;
48733;SDS011;34530;52.084;5.146;2022-11-20T14:47:02;21.23;;;8.75;;
48733;SDS011;34530;52.084;5.146;2022-11-20T14:49:29;18.33;;;9.15;;
48733;SDS011;34530;52.084;5.146;2022-11-20T14:52:00;17.38;;;8.75;;
48733;SDS011;34530;52.084;5.146;2022-11-20T14:54:27;20.70;;;10.13;;
48733;SDS011;34530;52.084;5.146;2022-11-20T14:56:59;16.65;;;9.27;;
48733;SDS011;34530;52.084;5.146;2022-11-20T14:59:27;13.18;;;8.45;;
48733;SDS011;34530;52.084;5.146;2022-11-20T15:01:59;22.38;;;9.93;;
48733;SDS011;34530;52.084;5.146;2022-11-20T15:04:28;21.60;;;9.82;;
48733;SDS011;34530;52.084;5.146;2022-11-20T15:06:54;15.80;;;8.75;;
48733;SDS011;34530;52.084;5.146;2022-11-20T15:09:22;18.25;;;9.07;;
48733;SDS011;34530;52.084;5.146;2022-11-20T15:11:55;18.23;;;9.70;;
48733;SDS011;34530;52.084;5.146;2022-11-20T15:14:25;19.60;;;8.88;;
48733;SDS011;34530;52.084;5.146;2022-11-20T15:16:52;16.35;;;8.88;;
48733;SDS011;34530;52.084;5.146;2022-11-20T15:19:19;19.15;;;9.32;;
48733;SDS011;34530;52.084;5.146;2022-11-20T15:21:46;18.77;;;9.77;;
48733;SDS011;34530;52.084;5.146;2022-11-20T15:24:12;19.15;;;9.32;;
48733;SDS011;34530;52.084;5.146;2022-11-20T15:26:38;16.25;;;9.52;;
48733;SDS011;34530;52.084;5.146;2022-11-20T15:29:09;14.10;;;9.35;;
48733;SDS011;34530;52.084;5.146;2022-11-20T15:31:37;15.48;;;9.25;;
48733;SDS011;34530;52.084;5.146;2022-11-20T15:34:08;17.08;;;9.90;;
48733;SDS011;34530;52.084;5.146;2022-11-20T15:36:38;13.05;;;8.82;;
48733;SDS011;34530;52.084;5.146;2022-11-20T15:39:04;15.93;;;10.10;;
48733;SDS011;34530;52.084;5.146;2022-11-20T15:41:32;16.63;;;9.48;;
48733;SDS011;34530;52.084;5.146;2022-11-20T15:44:00;15.98;;;9.90;;
48733;SDS011;34530;52.084;5.146;2022-11-20T15:46:27;12.55;;;9.00;;
48733;SDS011;34530;52.084;5.146;2022-11-20T15:48:54;16.75;;;9.73;;
48733;SDS011;34530;52.084;5.146;2022-11-20T15:51:27;13.82;;;9.38;;
48733;SDS011;34530;52.084;5.146;2022-11-20T15:53:55;13.60;;;8.50;;
48733;SDS011;34530;52.084;5.146;2022-11-20T15:56:21;16.48;;;9.73;;
48733;SDS011;34530;52.084;5.146;2022-11-20T15:58:46;16.98;;;9.68;;
48733;SDS011;34530;52.084;5.146;2022-11-20T16:01:13;14.18;;;9.02;;
48733;SDS011;34530;52.084;5.146;2022-11-20T16:03:44;14.60;;;9.05;;
48733;SDS011;34530;52.084;5.146;2022-11-20T16:06:10;12.70;;;9.40;;
48733;SDS011;34530;52.084;5.146;2022-11-20T16:08:36;16.67;;;10.00;;
48733;SDS011;34530;52.084;5.146;2022-11-20T16:11:01;13.52;;;9.43;;
48733;SDS011;34530;52.084;5.146;2022-11-20T16:13:27;13.90;;;9.18;;
48733;SDS011;34530;52.084;5.146;2022-11-20T16:16:30;15.65;;;9.63;;